Time;durP1;ratioP1;P1;durP2;ratioP2;P2;SDS_P1;SDS_P2;PMS_P1;PMS_P2;Temp;Humidity;BMP_temperature;BMP_pressure;BME280_temperature;BME280_humidity;BME280_pressure;Samples;Min_cycle;Max_cycle;Signal;HPM_P1;HPM_P2
2022/03/02 00:00:26;;;;;;;10.23;4.40;;;;;;;-5.91;54.51;99519.72;5096969;28;20059;-60
2022/03/02 00:02:57;;;;;;;6.47;3.85;;;;;;;-5.73;53.96;99507.66;5084247;28;20224;-59
2022/03/02 00:05:31;;;;;;;7.00;3.80;;;;;;;-5.49;53.72;99511.91;5095640;28;20328;-60
2022/03/02 00:08:04;;;;;;;8.70;3.85;;;;;;;-5.20;53.13;99506.16;5090643;28;20040;-62
2022/03/02 00:10:35;;;;;;;7.25;4.00;;;;;;;-5.02;52.17;99505.03;5093958;28;20059;-60
2022/03/02 00:13:06;;;;;;;8.43;4.10;;;;;;;-4.77;51.22;99512.69;5092774;28;20115;-59
2022/03/02 00:15:37;;;;;;;14.32;6.70;;;;;;;-4.51;51.04;99499.91;5094502;28;20052;-60
2022/03/02 00:18:08;;;;;;;6.85;4.20;;;;;;;-4.40;51.12;99498.56;5094266;28;20300;-60
2022/03/02 00:20:39;;;;;;;8.45;3.63;;;;;;;-4.25;50.96;99497.31;5094552;28;20040;-62
2022/03/02 00:23:11;;;;;;;5.57;3.10;;;;;;;-4.34;50.10;99473.25;5094108;28;20074;-61
2022/03/02 00:25:42;;;;;;;8.45;4.95;;;;;;;-4.05;49.66;99501.31;5093820;28;20071;-64
2022/03/02 00:28:13;;;;;;;12.55;5.50;;;;;;;-3.94;49.47;99489.75;5093928;28;20070;-60
2022/03/02 00:30:44;;;;;;;11.93;3.58;;;;;;;-4.01;49.29;99482.72;5093844;28;20079;-60
2022/03/02 00:33:15;;;;;;;10.50;4.10;;;;;;;-3.83;49.82;99491.75;5094155;28;20119;-60
2022/03/02 00:35:46;;;;;;;5.85;3.50;;;;;;;-3.80;49.66;99489.28;5092873;28;20305;-60
2022/03/02 00:38:18;;;;;;;9.95;3.40;;;;;;;-3.79;49.19;99493.56;5092919;28;20346;-61
2022/03/02 00:40:49;;;;;;;8.90;3.83;;;;;;;-3.72;49.43;99495.47;5093308;28;20052;-63
2022/03/02 00:43:32;;;;;;;7.30;3.60;;;;;;;-3.58;49.52;99494.16;5093587;28;20055;-60
2022/03/02 00:46:03;;;;;;;8.57;4.20;;;;;;;-3.52;48.88;99489.25;5097000;28;20386;-61
2022/03/02 00:48:50;;;;;;;11.43;5.03;;;;;;;-3.35;49.39;99488.81;5096300;28;20373;-59
2022/03/02 00:51:38;;;;;;;11.05;4.50;;;;;;;-3.19;48.91;99483.31;5097400;28;20387;-62
2022/03/02 00:54:11;;;;;;;14.25;5.45;;;;;;;-3.23;48.85;99484.03;5097087;28;20135;-60
2022/03/02 00:56:42;;;;;;;12.07;5.75;;;;;;;-3.15;49.69;99479.97;5097075;28;20856;-62
2022/03/02 00:59:29;;;;;;;14.70;5.38;;;;;;;-3.05;50.06;99481.94;5096755;28;20110;-60
2022/03/02 01:02:17;;;;;;;15.25;6.38;;;;;;;-2.97;49.83;99463.38;5097088;28;20051;-60
2022/03/02 01:05:06;;;;;;;12.65;4.80;;;;;;;-2.74;50.45;99463.97;5096880;28;20121;-63
2022/03/02 01:07:54;;;;;;;10.60;4.35;;;;;;;-2.46;50.92;99468.91;5096865;28;20106;-61
2022/03/02 01:10:43;;;;;;;6.47;3.78;;;;;;;-2.29;51.30;99456.50;5097012;28;20055;-64
2022/03/02 01:13:14;;;;;;;5.85;2.92;;;;;;;-2.18;51.62;99460.13;5096764;28;20090;-61
2022/03/02 01:15:45;;;;;;;5.00;2.70;;;;;;;-2.06;51.41;99451.00;5096230;28;20063;-60
2022/03/02 01:18:16;;;;;;;9.02;3.30;;;;;;;-1.86;51.42;99456.53;5096321;28;20046;-60
2022/03/02 01:20:46;;;;;;;5.72;2.90;;;;;;;-1.68;50.63;99445.78;5096687;28;20211;-61
2022/03/02 01:23:17;;;;;;;4.30;2.67;;;;;;;-1.44;50.36;99446.28;5096329;28;20389;-60
2022/03/02 01:25:50;;;;;;;7.57;3.72;;;;;;;-1.12;49.70;99440.88;5096379;28;20048;-60
2022/03/02 01:28:20;;;;;;;6.30;2.80;;;;;;;-0.89;49.16;99439.53;5096176;28;20154;-60
2022/03/02 01:30:51;;;;;;;6.05;2.60;;;;;;;-0.87;48.54;99429.31;5097356;28;20060;-62
2022/03/02 01:33:22;;;;;;;6.70;2.95;;;;;;;-0.99;47.53;99424.84;5096958;28;20125;-62
2022/03/02 01:35:53;;;;;;;6.90;2.85;;;;;;;-1.08;47.02;99425.53;5095401;28;20563;-60
2022/03/02 01:38:24;;;;;;;6.30;2.95;;;;;;;-1.12;47.16;99418.66;5095867;28;20060;-60
2022/03/02 01:40:56;;;;;;;4.88;2.83;;;;;;;-0.91;47.56;99422.41;5095850;28;20052;-63
2022/03/02 01:43:28;;;;;;;7.05;3.13;;;;;;;-0.61;47.49;99422.03;5096133;28;20052;-61
2022/03/02 01:45:59;;;;;;;6.32;3.83;;;;;;;-0.49;46.22;99417.06;5095793;28;20052;-61
2022/03/02 01:48:29;;;;;;;6.45;3.60;;;;;;;-0.54;45.59;99413.56;5095903;28;20087;-60
2022/03/02 01:51:00;;;;;;;9.02;3.80;;;;;;;-0.59;44.00;99410.09;5096173;28;20503;-59
2022/03/02 01:53:31;;;;;;;9.75;2.90;;;;;;;-0.79;44.78;99401.22;5095695;28;20071;-59
2022/03/02 01:56:04;;;;;;;4.95;2.95;;;;;;;-0.79;44.70;99407.22;5094148;28;20306;-65
2022/03/02 01:58:35;;;;;;;5.22;2.85;;;;;;;-0.81;44.12;99408.03;5095098;28;20128;-58
2022/03/02 02:01:07;;;;;;;11.95;3.53;;;;;;;-0.69;44.86;99392.81;5095491;28;20047;-60
2022/03/02 02:03:38;;;;;;;11.35;5.30;;;;;;;-0.84;44.86;99313.09;5093142;28;20325;-61
2022/03/02 02:06:09;;;;;;;9.40;3.97;;;;;;;-0.09;44.74;99391.94;5095462;28;20052;-59
2022/03/02 02:08:40;;;;;;;10.80;4.70;;;;;;;0.01;44.56;99389.50;5095989;28;20054;-63
2022/03/02 02:11:15;;;;;;;10.57;5.88;;;;;;;0.15;44.64;99390.50;5094795;28;20051;-62
2022/03/02 02:13:45;;;;;;;9.32;5.60;;;;;;;0.25;44.32;99387.22;5096784;28;20087;-60
2022/03/02 02:16:17;;;;;;;10.07;5.20;;;;;;;0.50;44.31;99387.44;5096544;28;20267;-65
2022/03/02 02:18:50;;;;;;;15.68;5.57;;;;;;;0.80;44.39;99382.63;5096325;28;20046;-64
2022/03/02 02:21:23;;;;;;;9.95;5.18;;;;;;;1.08;44.05;99367.41;5096461;28;20056;-67
2022/03/02 02:23:53;;;;;;;11.98;6.47;;;;;;;1.36;43.18;99365.00;5096105;28;20246;-68
2022/03/02 02:26:25;;;;;;;16.05;7.10;;;;;;;1.63;43.50;99383.19;5096028;28;20119;-72
2022/03/02 02:28:57;;;;;;;20.02;8.00;;;;;;;1.80;43.09;99374.69;5096011;28;20130;-70
2022/03/02 02:31:28;;;;;;;20.77;7.95;;;;;;;1.43;41.22;99353.91;5095859;28;20052;-68
2022/03/02 02:33:59;;;;;;;15.85;8.15;;;;;;;1.29;41.61;99372.69;5095722;28;20105;-70
2022/03/02 02:36:32;;;;;;;13.60;6.50;;;;;;;1.21;42.13;99363.19;5095841;28;20152;-66
2022/03/02 02:39:02;;;;;;;12.18;5.72;;;;;;;1.61;42.57;99369.44;5095958;28;20048;-70
2022/03/02 02:41:33;;;;;;;9.85;5.28;;;;;;;1.75;43.23;99360.91;5095581;28;20063;-70
2022/03/02 02:44:05;;;;;;;9.25;5.25;;;;;;;2.04;41.23;99372.22;5095873;28;20391;-70
2022/03/02 02:46:36;;;;;;;10.75;4.85;;;;;;;2.03;42.21;99375.66;5095444;28;20084;-71
2022/03/02 02:49:06;;;;;;;8.40;3.47;;;;;;;2.11;42.44;99366.22;5096035;28;20052;-71
2022/03/02 02:51:39;;;;;;;8.93;3.28;;;;;;;1.58;43.07;99348.84;5095741;28;20079;-72
2022/03/02 02:54:10;;;;;;;5.25;2.90;;;;;;;0.69;43.71;99301.94;5095276;28;20109;-70
2022/03/02 02:56:40;;;;;;;7.50;3.30;;;;;;;0.55;44.42;99365.22;5095637;28;20040;-66
2022/03/02 02:59:11;;;;;;;7.82;4.05;;;;;;;0.35;45.41;99347.91;5095732;28;20123;-66
2022/03/02 03:01:42;;;;;;;7.57;3.80;;;;;;;0.38;46.47;99347.94;5095767;28;20063;-67
2022/03/02 03:04:13;;;;;;;10.13;3.65;;;;;;;0.27;47.84;99339.25;5095680;28;20059;-65
2022/03/02 03:06:45;;;;;;;5.93;3.35;;;;;;;0.29;47.52;99350.41;5095256;28;20044;-63
2022/03/02 03:09:17;;;;;;;7.07;3.47;;;;;;;-0.29;47.45;99270.16;5116063;22;20112;-81
2022/03/02 03:11:49;;;;;;;7.50;4.47;;;;;;;0.16;48.14;99335.72;5070943;28;20068;-80
2022/03/02 03:14:21;;;;;;;6.70;3.20;;;;;;;0.09;47.38;99313.38;5073280;28;20041;-80
2022/03/02 03:16:52;;;;;;;8.77;3.78;;;;;;;0.26;47.43;99311.84;5073091;28;20290;-80
2022/03/02 03:19:22;;;;;;;7.25;3.10;;;;;;;0.15;47.52;99236.34;5075281;28;20332;-79
2022/03/02 03:21:55;;;;;;;5.18;2.92;;;;;;;0.85;47.30;99314.06;5075832;28;20036;-80
2022/03/02 03:24:26;;;;;;;3.53;2.40;;;;;;;0.88;46.85;99307.22;5070903;28;20068;-80
2022/03/02 03:26:57;;;;;;;8.85;3.40;;;;;;;0.93;47.36;99301.25;5068674;28;20098;-79
2022/03/02 03:29:27;;;;;;;7.90;3.50;;;;;;;0.50;47.17;99233.22;5073777;28;20132;-80
2022/03/02 03:31:58;;;;;;;7.90;3.80;;;;;;;0.91;46.81;99286.69;5078415;28;20051;-80
2022/03/02 03:34:29;;;;;;;8.20;4.20;;;;;;;1.17;46.76;99309.97;5078092;28;20040;-80
2022/03/02 03:37:02;;;;;;;7.22;3.90;;;;;;;0.75;46.66;99234.25;5063099;28;20596;-80
2022/03/02 03:39:33;;;;;;;5.75;3.20;;;;;;;0.79;46.65;99278.00;5064198;28;20049;-81
2022/03/02 03:42:04;;;;;;;5.35;3.25;;;;;;;0.13;47.83;99243.22;5068164;28;20102;-80
2022/03/02 03:44:35;;;;;;;5.28;2.90;;;;;;;-0.21;48.01;99237.72;5075680;28;20044;-81
2022/03/02 03:47:07;;;;;;;6.25;3.60;;;;;;;-0.47;49.03;99246.00;5061605;28;20132;-80
2022/03/02 03:49:39;;;;;;;10.50;3.78;;;;;;;-0.57;50.15;99285.25;5066536;28;20053;-80
2022/03/02 03:52:11;;;;;;;7.97;3.85;;;;;;;-0.78;51.15;99297.78;5072551;28;20052;-81
2022/03/02 03:54:42;;;;;;;7.70;4.18;;;;;;;-1.10;52.45;99282.78;5069209;28;20052;-81
2022/03/02 03:57:13;;;;;;;8.13;4.05;;;;;;;-1.18;53.36;99310.00;5071895;28;20056;-81
2022/03/02 03:59:45;;;;;;;6.53;3.30;;;;;;;-1.15;54.99;99333.13;5061407;28;20052;-81
2022/03/02 04:02:16;;;;;;;5.32;3.30;;;;;;;-1.95;55.73;99234.47;5064228;28;20104;-80
2022/03/02 04:04:47;;;;;;;4.32;2.85;;;;;;;-1.43;57.12;99325.00;5065149;28;20064;-81
2022/03/02 04:07:20;;;;;;;4.30;2.75;;;;;;;-1.69;57.44;99280.16;5078438;28;20116;-81
2022/03/02 04:09:51;;;;;;;7.45;2.83;;;;;;;-1.51;58.00;99249.72;5075469;28;20087;-83
2022/03/02 04:12:22;;;;;;;5.05;2.85;;;;;;;-0.83;57.82;99312.25;5080957;28;20070;-81
2022/03/02 04:14:53;;;;;;;3.55;2.15;;;;;;;-1.12;56.71;99274.22;5069565;28;20052;-82
2022/03/02 04:17:24;;;;;;;4.25;2.22;;;;;;;-0.81;56.16;99292.59;5071703;28;20276;-82
2022/03/02 04:19:55;;;;;;;4.40;2.45;;;;;;;-1.45;55.91;99216.47;5069573;28;20045;-82
2022/03/02 04:22:31;;;;;;;4.60;2.72;;;;;;;-0.80;55.70;99291.75;5060783;28;20067;-85
2022/03/02 04:25:04;;;;;;;4.32;2.70;;;;;;;-0.56;53.64;99281.81;5064947;28;20045;-85
2022/03/02 04:27:35;;;;;;;4.53;2.30;;;;;;;-0.40;52.39;99256.34;5064317;28;20071;-85
2022/03/02 04:30:07;;;;;;;5.15;2.28;;;;;;;-0.09;51.37;99212.19;5069669;28;20053;-85
2022/03/02 04:32:38;;;;;;;3.75;2.20;;;;;;;0.64;49.85;99288.19;5075835;28;20044;-85
2022/03/02 04:35:12;;;;;;;3.80;2.25;;;;;;;0.60;49.43;99276.13;5065444;28;20053;-85
2022/03/02 04:37:48;;;;;;;4.10;2.30;;;;;;;0.57;48.41;99286.41;5063006;28;20095;-85
2022/03/02 04:40:24;;;;;;;4.93;1.80;;;;;;;0.05;47.31;99231.97;5067589;28;20329;-85
2022/03/02 04:42:56;;;;;;;2.75;2.15;;;;;;;-0.12;47.48;99253.25;5076566;28;20091;-85
2022/03/02 04:45:27;;;;;;;2.38;1.83;;;;;;;-0.29;48.74;99295.84;5061990;28;20045;-85
2022/03/02 04:48:00;;;;;;;6.25;2.20;;;;;;;-0.32;49.73;99321.47;5061551;28;20045;-84
2022/03/02 04:50:36;;;;;;;3.90;1.95;;;;;;;-0.41;50.16;99264.88;5063922;28;20049;-85
2022/03/02 04:53:09;;;;;;;5.30;2.75;;;;;;;-0.11;49.93;99311.44;5075165;28;20071;-84
2022/03/02 04:55:40;;;;;;;4.75;2.42;;;;;;;-0.75;50.13;99249.06;5076490;28;20057;-85
2022/03/02 04:58:11;;;;;;;5.60;2.90;;;;;;;-0.81;51.47;99238.75;5073347;28;20102;-84
2022/03/02 05:00:44;;;;;;;5.88;3.33;;;;;;;-0.79;51.62;99237.06;5072532;28;20077;-84
2022/03/02 05:03:15;;;;;;;6.05;3.05;;;;;;;-0.12;51.73;99298.59;5062298;28;20099;-84
2022/03/02 05:05:46;;;;;;;6.05;3.45;;;;;;;-0.31;52.16;99287.25;5074802;28;20037;-84
2022/03/02 05:08:19;;;;;;;5.80;3.53;;;;;;;-0.04;51.92;99349.19;5076319;28;20432;-84
2022/03/02 05:10:50;;;;;;;5.50;2.80;;;;;;;-0.92;52.05;99288.19;5072142;28;20068;-85
2022/03/02 05:13:21;;;;;;;5.57;2.33;;;;;;;-2.24;54.91;99301.34;5063594;28;20084;-84
2022/03/02 05:15:54;;;;;;;4.70;2.10;;;;;;;-2.91;55.97;99280.38;5070076;28;20107;-84
2022/03/02 05:18:25;;;;;;;2.75;2.15;;;;;;;-3.44;57.42;99230.59;5080375;28;20053;-84
2022/03/02 05:20:56;;;;;;;4.72;2.05;;;;;;;-2.68;58.36;99347.34;5066154;28;20049;-84
2022/03/02 05:23:29;;;;;;;5.32;2.88;;;;;;;-2.88;58.63;99251.44;5060141;28;20238;-83
2022/03/02 05:26:00;;;;;;;4.18;2.03;;;;;;;-2.50;55.98;99264.16;5070095;28;20045;-84
2022/03/02 05:28:31;;;;;;;4.57;2.03;;;;;;;-2.38;55.64;99289.97;5066853;28;20094;-79
2022/03/02 05:31:02;;;;;;;3.22;2.10;;;;;;;-2.06;54.95;99305.09;5080708;28;20052;-79
2022/03/02 05:33:33;;;;;;;4.15;2.60;;;;;;;-1.83;55.02;99344.78;5071562;28;20045;-79
2022/03/02 05:36:03;;;;;;;3.30;2.50;;;;;;;-1.86;55.00;99339.63;5077415;28;20041;-79
2022/03/02 05:38:36;;;;;;;6.55;3.10;;;;;;;-1.89;54.49;99344.69;5077641;28;20060;-78
2022/03/02 05:41:07;;;;;;;4.43;2.80;;;;;;;-1.71;55.18;99358.66;5070893;28;20353;-79
2022/03/02 05:43:38;;;;;;;7.28;3.30;;;;;;;-1.62;55.18;99358.81;5078640;28;20044;-79
2022/03/02 05:46:09;;;;;;;5.85;3.40;;;;;;;-2.08;55.48;99255.56;5076458;28;20068;-79
2022/03/02 05:48:40;;;;;;;6.20;3.10;;;;;;;-1.78;54.26;99291.94;5066050;28;20112;-78
2022/03/02 05:51:11;;;;;;;6.43;2.90;;;;;;;-1.18;53.70;99325.41;5076722;28;20048;-77
2022/03/02 05:53:43;;;;;;;5.32;2.90;;;;;;;-0.68;53.83;99343.22;5069057;28;20120;-77
2022/03/02 05:56:14;;;;;;;4.88;2.70;;;;;;;-0.90;53.25;99291.66;5075619;28;20040;-77
2022/03/02 05:58:45;;;;;;;3.85;2.47;;;;;;;-0.77;52.97;99286.69;5075273;28;20060;-77
2022/03/02 06:01:16;;;;;;;4.35;2.53;;;;;;;-0.45;53.10;99349.56;5070796;28;20053;-77
2022/03/02 06:03:49;;;;;;;5.57;2.50;;;;;;;-0.18;53.28;99344.75;5068658;28;20094;-78
2022/03/02 06:06:40;;;;;;;5.00;2.42;;;;;;;0.10;52.73;99345.91;5082219;28;20084;-78
2022/03/02 06:09:13;;;;;;;6.20;2.90;;;;;;;0.04;52.24;99294.50;5069272;28;20075;-79
2022/03/02 06:11:45;;;;;;;5.20;2.60;;;;;;;-0.18;51.24;99253.16;5080331;28;20059;-78
2022/03/02 06:14:16;;;;;;;5.88;3.08;;;;;;;0.34;50.82;99345.31;5080424;28;20045;-78
2022/03/02 06:16:47;;;;;;;6.13;2.72;;;;;;;-0.18;50.23;99350.72;5082640;28;20316;-78
2022/03/02 06:19:19;;;;;;;4.30;2.80;;;;;;;-1.06;50.81;99294.81;5071475;28;20048;-79
2022/03/02 06:21:51;;;;;;;5.53;2.55;;;;;;;-1.38;51.69;99297.75;5081576;28;20102;-79
2022/03/02 06:24:24;;;;;;;4.93;2.72;;;;;;;-1.24;52.23;99359.50;5082310;28;20115;-78
2022/03/02 06:26:55;;;;;;;6.45;2.92;;;;;;;-1.48;52.62;99354.81;5075504;28;20344;-78
2022/03/02 06:29:26;;;;;;;6.78;3.53;;;;;;;-2.08;51.57;99347.72;5078207;28;20067;-78
2022/03/02 06:31:57;;;;;;;4.80;2.80;;;;;;;-2.75;51.88;99358.25;5075658;28;20049;-78
2022/03/02 06:34:28;;;;;;;3.30;2.15;;;;;;;-3.29;54.57;99358.72;5067038;28;20075;-79
2022/03/02 06:36:58;;;;;;;3.38;2.40;;;;;;;-3.94;57.89;99315.34;5079917;28;20048;-78
2022/03/02 06:39:31;;;;;;;3.60;2.40;;;;;;;-3.93;61.33;99340.91;5072247;28;20252;-78
2022/03/02 06:42:11;;;;;;;7.63;3.55;;;;;;;-4.43;62.35;99268.97;5076561;28;20099;-79
2022/03/02 06:44:55;;;;;;;9.73;4.40;;;;;;;-3.59;62.16;99374.97;5075657;28;20052;-77
2022/03/02 06:47:29;;;;;;;4.85;3.05;;;;;;;-3.63;60.98;99373.16;5062365;28;20051;-81
2022/03/02 06:50:07;;;;;;;3.53;2.17;;;;;;;-4.02;60.50;99348.31;5063422;28;20056;-80
2022/03/02 06:52:39;;;;;;;4.75;2.67;;;;;;;-4.22;60.58;99355.44;5075746;28;20045;-80
2022/03/02 06:55:14;;;;;;;4.22;2.45;;;;;;;-4.30;61.22;99361.97;5067681;28;20119;-82
2022/03/02 06:57:48;;;;;;;3.53;2.30;;;;;;;-4.66;60.48;99311.66;5071757;28;20040;-82
2022/03/02 07:00:20;;;;;;;5.95;2.80;;;;;;;-5.05;60.25;99270.59;5073808;28;20124;-82
2022/03/02 07:02:52;;;;;;;7.50;2.80;;;;;;;-4.72;60.31;99336.09;5072557;28;20052;-82
2022/03/02 07:05:23;;;;;;;6.18;3.10;;;;;;;-4.68;59.89;99358.31;5072789;28;20100;-83
2022/03/02 07:07:54;;;;;;;6.68;2.50;;;;;;;-4.75;60.09;99367.47;5078111;28;20060;-84
2022/03/02 07:10:28;;;;;;;3.33;2.67;;;;;;;-4.73;59.88;99385.34;5075546;28;20044;-83
2022/03/02 07:12:59;;;;;;;6.47;3.53;;;;;;;-5.09;59.45;99334.97;5077813;28;20229;-83
2022/03/02 07:15:31;;;;;;;4.38;2.65;;;;;;;-5.29;59.29;99322.50;5063358;28;20053;-83
2022/03/02 07:18:03;;;;;;;5.78;3.50;;;;;;;-5.29;58.61;99342.88;5067616;28;20041;-83
2022/03/02 07:20:38;;;;;;;5.32;2.55;;;;;;;-5.69;58.20;99285.59;5081317;28;20145;-83
2022/03/02 07:23:15;;;;;;;7.43;3.50;;;;;;;-5.20;57.72;99368.63;5073206;28;20044;-84
2022/03/02 07:25:47;;;;;;;5.82;3.63;;;;;;;-5.03;57.29;99401.41;5066114;28;20044;-86
2022/03/02 07:28:41;;;;;;;;;;;;;;;;;;;;;
2022/03/02 07:35:24;;;;;;;3.35;2.40;;;;;;;-5.52;55.38;99420.16;4932817;28;20054;-84
2022/03/02 07:37:55;;;;;;;4.40;2.50;;;;;;;-5.55;55.35;99425.16;5000701;28;20077;-85
2022/03/02 07:40:26;;;;;;;7.32;2.40;;;;;;;-5.99;55.25;99368.50;4999769;28;20081;-87
2022/03/02 07:42:59;;;;;;;5.32;2.30;;;;;;;-5.66;55.14;99433.28;5000008;28;20053;-82
2022/03/02 07:45:31;;;;;;;3.10;2.17;;;;;;;-5.98;55.69;99427.09;5000048;28;20062;-86
2022/03/02 07:48:02;;;;;;;6.35;4.07;;;;;;;-6.42;55.86;99374.59;4999923;28;20047;-83
2022/03/02 07:50:34;;;;;;;8.38;3.80;;;;;;;-6.40;57.36;99385.69;5000446;28;20081;-85
2022/03/02 07:53:11;;;;;;;4.95;3.85;;;;;;;-7.06;56.61;99285.03;5000321;28;20062;-86
2022/03/02 07:56:04;;;;;;;5.00;3.20;;;;;;;-5.98;57.31;99479.63;5022500;28;20051;-85
2022/03/02 07:58:42;;;;;;;5.97;2.70;;;;;;;-6.07;57.92;99445.41;5081212;28;20045;-84
2022/03/02 08:01:19;;;;;;;5.15;2.83;;;;;;;-6.34;58.58;99391.00;5071655;28;20053;-84
2022/03/02 08:03:50;;;;;;;5.90;3.35;;;;;;;-6.01;58.80;99459.19;5070535;28;20044;-85
2022/03/02 08:06:22;;;;;;;8.00;3.25;;;;;;;-6.15;58.82;99451.88;5062166;28;20069;-81
2022/03/02 08:08:53;;;;;;;49.72;14.20;;;;;;;-6.07;58.99;99496.28;5074260;28;20079;-84
2022/03/02 08:11:25;;;;;;;34.83;12.85;;;;;;;-6.80;59.85;99377.44;5071288;28;20364;-80
2022/03/02 08:13:58;;;;;;;32.60;11.32;;;;;;;-6.80;60.39;99391.81;5078650;28;20100;-80
2022/03/02 08:16:30;;;;;;;8.05;4.57;;;;;;;-6.80;61.09;99422.28;5075636;28;20057;-80
2022/03/02 08:19:03;;;;;;;9.98;3.65;;;;;;;-6.67;61.60;99475.31;5068911;28;20049;-81
2022/03/02 08:21:36;;;;;;;7.07;3.95;;;;;;;-6.60;62.16;99502.69;5075462;28;20110;-83
2022/03/02 08:24:09;;;;;;;7.40;2.88;;;;;;;-7.03;62.57;99442.56;5074499;28;20052;-83
2022/03/02 08:26:41;;;;;;;5.25;2.92;;;;;;;-7.20;62.14;99423.25;5067488;28;20056;-82
2022/03/02 08:29:14;;;;;;;4.55;2.90;;;;;;;-6.75;62.22;99508.03;5067033;28;20056;-83
2022/03/02 08:31:45;;;;;;;9.20;3.17;;;;;;;-7.21;62.01;99449.44;5063043;28;20055;-80
2022/03/02 08:34:35;;;;;;;7.95;3.15;;;;;;;-7.44;61.92;99435.78;5067607;28;20045;-85
2022/03/02 08:38:01;;;;;;;;;;;;;;;;;;;;;
2022/03/02 08:40:50;;;;;;;5.60;3.17;;;;;;;-7.24;62.19;99492.44;5070090;28;20048;-85
2022/03/02 08:43:23;;;;;;;5.82;3.03;;;;;;;-7.65;62.44;99438.28;5067083;28;20044;-84
2022/03/02 08:45:58;;;;;;;4.82;2.75;;;;;;;-8.13;61.89;99346.66;5077366;28;20036;-84
2022/03/02 08:48:33;;;;;;;5.40;2.95;;;;;;;-7.16;61.21;99535.16;5069442;28;20058;-83
2022/03/02 08:51:22;;;;;;;;;;;;;;;;;;;;;
2022/03/02 08:54:18;;;;;;;;;;;;;;;;;;;;;
2022/03/02 08:57:19;;;;;;;4.03;2.78;;;;;;;-7.85;60.42;99468.72;5071201;28;20104;-86
2022/03/02 08:59:59;;;;;;;5.43;3.15;;;;;;;-8.30;59.21;99397.44;5065651;28;20040;-84
2022/03/02 09:02:51;;;;;;;8.30;4.22;;;;;;;-8.45;58.63;99391.72;5068048;28;20068;-84
2022/03/02 09:05:28;;;;;;;18.83;6.15;;;;;;;-8.43;58.39;99390.16;5068569;28;20123;-84
2022/03/02 09:08:06;;;;;;;19.77;6.82;;;;;;;-7.77;57.39;99516.38;5073077;28;20321;-85
2022/03/02 09:10:45;;;;;;;16.10;5.80;;;;;;;-8.16;56.90;99465.63;5072870;28;20114;-82
2022/03/02 09:13:20;;;;;;;11.70;4.95;;;;;;;-8.21;56.51;99467.06;5070360;28;20055;-84
2022/03/02 09:16:01;;;;;;;;;;;;;;;;;;;;;
2022/03/02 09:18:43;;;;;;;9.43;4.35;;;;;;;-8.14;56.03;99557.81;5080900;28;20048;-83
2022/03/02 09:21:16;;;;;;;93.80;34.35;;;;;;;-8.63;56.13;99558.06;5084142;28;20060;-82
2022/03/02 09:23:48;;;;;;;90.82;36.63;;;;;;;-9.16;57.62;99555.50;5084497;28;20045;-80
2022/03/02 09:26:20;;;;;;;23.30;11.55;;;;;;;-10.20;58.25;99494.47;5074662;28;20048;-83
2022/03/02 09:28:52;;;;;;;21.38;10.32;;;;;;;-10.49;59.49;99506.41;5083705;28;20041;-84
2022/03/02 09:31:26;;;;;;;24.77;12.52;;;;;;;-10.33;60.79;99575.44;5084244;28;20041;-83
2022/03/02 09:34:00;;;;;;;17.45;10.38;;;;;;;-10.65;61.32;99551.81;5083407;28;20082;-85
2022/03/02 09:36:34;;;;;;;25.73;13.93;;;;;;;-10.79;62.85;99545.09;5079197;28;20060;-85
2022/03/02 09:39:35;;;;;;;36.55;21.95;;;;;;;-11.63;63.54;99488.13;5079500;28;20040;-84
2022/03/02 09:42:12;;;;;;;16.92;8.70;;;;;;;-11.89;64.57;99474.91;5080346;28;20067;-82
2022/03/02 09:45:01;;;;;;;14.07;7.32;;;;;;;-11.32;64.90;99557.22;5083825;28;20041;-81
2022/03/02 09:51:28;;;;;;;12.75;6.18;;;;;;;-11.53;67.15;99533.28;4883264;29;20049;-80
2022/03/02 09:54:02;;;;;;;21.52;8.63;;;;;;;-11.65;67.60;99515.78;4946721;28;20055;-83
2022/03/02 09:56:35;;;;;;;8.98;4.53;;;;;;;-11.81;68.02;99523.19;5011840;28;20099;-84
2022/03/02 09:59:08;;;;;;;5.38;4.03;;;;;;;-11.76;68.46;99512.63;5082203;28;20044;-83
2022/03/02 10:01:41;;;;;;;13.90;4.72;;;;;;;-11.61;68.65;99542.91;5083800;28;20093;-85
2022/03/02 10:04:21;;;;;;;8.10;4.15;;;;;;;-12.34;69.09;99427.72;5081724;28;20116;-84
2022/03/02 10:07:26;;;;;;;6.38;3.72;;;;;;;-11.66;69.58;99553.50;5079353;28;20051;-84
2022/03/02 10:10:13;;;;;;;5.15;3.75;;;;;;;-12.20;70.01;99483.16;5081063;28;20063;-80
2022/03/02 10:12:45;;;;;;;9.98;3.38;;;;;;;-11.73;70.17;99570.78;5082832;28;20053;-80
2022/03/02 10:15:17;;;;;;;11.02;3.90;;;;;;;-12.65;70.70;99441.81;5083340;28;20079;-83
2022/03/02 10:17:51;;;;;;;5.82;3.28;;;;;;;-12.37;71.33;99493.84;5082429;28;20059;-83
2022/03/02 10:20:24;;;;;;;8.63;4.10;;;;;;;-12.67;71.16;99448.38;5082801;28;20046;-84
2022/03/02 10:23:28;;;;;;;4.47;3.70;;;;;;;-12.91;70.93;99381.47;5072363;28;20044;-84
2022/03/02 10:26:17;;;;;;;5.03;3.17;;;;;;;-12.61;70.80;99447.88;5073850;28;20083;-83
2022/03/02 10:29:04;;;;;;;3.85;2.95;;;;;;;-12.33;70.62;99504.97;5082232;28;20098;-83
2022/03/02 10:31:54;;;;;;;5.70;3.50;;;;;;;-12.04;70.70;99578.13;5079429;28;20087;-84
2022/03/02 10:34:34;;;;;;;3.08;2.78;;;;;;;-12.48;70.77;99550.19;5063216;28;20055;-84
2022/03/02 10:37:19;;;;;;;5.22;2.78;;;;;;;-12.34;70.88;99544.38;5081629;28;20047;-85
2022/03/02 10:40:05;;;;;;;7.40;3.67;;;;;;;-12.93;71.02;99488.63;5082399;28;20236;-85
2022/03/02 10:42:39;;;;;;;5.38;2.63;;;;;;;-13.05;71.17;99443.47;5081146;28;20287;-82
2022/03/02 10:45:16;;;;;;;2.83;2.55;;;;;;;-12.44;71.52;99577.28;5075216;28;20230;-83
2022/03/02 10:47:57;;;;;;;2.90;2.60;;;;;;;-12.45;71.72;99566.38;5066126;28;20049;-81
2022/03/02 10:50:30;;;;;;;5.13;2.90;;;;;;;-12.60;71.43;99550.31;5080356;28;20085;-83
2022/03/02 10:53:03;;;;;;;5.22;3.30;;;;;;;-12.21;71.29;99606.44;5077310;28;20048;-80
2022/03/02 10:55:37;;;;;;;7.03;3.38;;;;;;;-12.24;70.74;99571.84;5078825;28;20044;-82
2022/03/02 10:58:08;;;;;;;7.18;4.40;;;;;;;-12.50;69.60;99526.56;5081071;28;20356;-81
2022/03/02 11:00:39;;;;;;;5.65;3.38;;;;;;;-12.81;68.61;99499.47;5082252;28;20050;-80
2022/03/02 11:03:14;;;;;;;5.88;3.28;;;;;;;-12.82;68.31;99532.97;5082384;28;20044;-81
2022/03/02 11:05:46;;;;;;;5.07;3.10;;;;;;;-12.86;68.12;99536.03;5082501;28;20044;-81
2022/03/02 11:08:19;;;;;;;5.22;2.90;;;;;;;-12.99;67.70;99563.69;5082138;28;20045;-82
2022/03/02 11:10:53;;;;;;;5.47;3.33;;;;;;;-12.86;67.46;99581.31;5065806;28;20390;-82
2022/03/02 11:13:25;;;;;;;7.50;3.85;;;;;;;-12.70;67.46;99604.19;5079750;28;20075;-81
2022/03/02 11:15:57;;;;;;;5.70;3.33;;;;;;;-12.58;67.46;99643.50;5081986;28;20244;-80
2022/03/02 11:18:53;;;;;;;;;;;;;;;;;;;;;
2022/03/02 11:21:30;;;;;;;9.57;3.97;;;;;;;-13.55;67.33;99508.94;5076486;28;20295;-81
2022/03/02 11:24:04;;;;;;;7.28;3.40;;;;;;;-12.98;67.65;99625.78;5082091;28;20059;-82
2022/03/02 11:26:39;;;;;;;8.80;3.75;;;;;;;-13.34;68.55;99655.28;5082113;28;20071;-82
2022/03/02 11:29:13;;;;;;;5.88;4.20;;;;;;;-13.84;69.85;99579.84;5081527;28;20047;-84
2022/03/02 11:31:45;;;;;;;5.25;3.38;;;;;;;-14.24;69.99;99517.72;5074772;28;20049;-83
2022/03/02 11:34:18;;;;;;;4.55;3.17;;;;;;;-13.95;70.70;99577.47;5070406;28;20072;-81
2022/03/02 11:36:51;;;;;;;3.90;3.05;;;;;;;-13.57;71.22;99631.97;5073267;28;20053;-80
2022/03/02 11:39:26;;;;;;;12.15;5.50;;;;;;;-14.27;71.68;99501.59;5081502;28;20047;-80
2022/03/02 11:42:04;;;;;;;14.65;6.50;;;;;;;-13.93;72.20;99529.84;5081278;28;20076;-82
2022/03/02 11:44:36;;;;;;;7.00;3.83;;;;;;;-13.31;71.66;99617.78;5081426;28;20044;-81
2022/03/02 11:47:10;;;;;;;4.75;3.10;;;;;;;-14.02;71.62;99497.47;5081157;28;20103;-81
2022/03/02 11:49:46;;;;;;;4.63;3.05;;;;;;;-13.92;71.67;99471.34;5081541;28;20248;-82
2022/03/02 11:52:21;;;;;;;2.90;2.60;;;;;;;-13.60;71.79;99526.25;5078919;28;20048;-81
2022/03/02 11:54:53;;;;;;;4.18;3.78;;;;;;;-13.50;71.74;99523.56;5077949;28;20079;-81
2022/03/02 11:57:34;;;;;;;4.18;3.00;;;;;;;-13.53;71.30;99523.34;5081368;28;20052;-82
2022/03/02 12:00:13;;;;;;;3.95;2.78;;;;;;;-14.00;71.15;99422.22;5080478;28;20106;-81
2022/03/02 12:02:46;;;;;;;3.10;2.70;;;;;;;-14.05;71.86;99394.34;5079899;28;20139;-82
2022/03/02 12:05:22;;;;;;;2.90;2.60;;;;;;;-12.88;71.30;99588.78;5074629;28;20105;-80
2022/03/02 12:07:54;;;;;;;7.97;3.20;;;;;;;-12.66;71.53;99606.13;5081324;28;20045;-81
2022/03/02 12:10:28;;;;;;;6.60;3.45;;;;;;;-13.23;70.20;99527.75;5073261;28;20071;-77
2022/03/02 12:13:01;;;;;;;4.50;2.85;;;;;;;-13.35;69.88;99543.81;5068660;28;20361;-78
2022/03/02 12:15:44;;;;;;;5.50;2.60;;;;;;;-13.21;70.23;99601.63;5067032;28;20063;-83
2022/03/02 12:18:19;;;;;;;4.68;3.17;;;;;;;-13.72;70.69;99506.19;5081548;28;20075;-84
2022/03/02 12:20:52;;;;;;;11.70;4.82;;;;;;;-12.87;70.82;99609.78;5081636;28;20103;-81